createdAt,value
2018-12-14T00:01:16.128Z,1.70
2018-12-14T00:03:44.509Z,1.70
2018-12-14T00:06:12.978Z,1.70
2018-12-14T00:08:42.403Z,1.70
2018-12-14T00:11:11.006Z,1.70
2018-12-14T00:13:39.775Z,1.70
2018-12-14T00:16:08.318Z,1.60
2018-12-14T00:18:37.641Z,1.60
2018-12-14T00:21:06.175Z,1.70
2018-12-14T00:23:34.725Z,1.60
2018-12-14T00:26:03.176Z,1.60
2018-12-14T00:28:31.676Z,1.60
2018-12-14T00:31:00.470Z,1.60
2018-12-14T00:33:28.981Z,1.60
2018-12-14T00:35:57.995Z,1.60
2018-12-14T00:38:26.502Z,1.60
2018-12-14T00:40:55.023Z,1.60
2018-12-14T00:43:23.854Z,1.50
2018-12-14T00:45:52.298Z,1.60
2018-12-14T00:48:20.945Z,1.60
2018-12-14T00:50:49.511Z,1.60
2018-12-14T00:53:18.078Z,1.60
2018-12-14T00:55:46.489Z,1.50
2018-12-14T00:58:14.842Z,1.50
2018-12-14T01:00:43.406Z,1.50
2018-12-14T01:03:11.905Z,1.50
2018-12-14T01:05:40.288Z,1.40
2018-12-14T01:08:08.864Z,1.50
2018-12-14T01:10:37.338Z,1.50
2018-12-14T01:13:10.571Z,1.40
2018-12-14T01:15:40.779Z,1.40
2018-12-14T01:18:09.191Z,1.40
2018-12-14T01:20:40.755Z,1.40
2018-12-14T01:23:09.108Z,1.40
2018-12-14T01:25:37.400Z,1.40
2018-12-14T01:28:05.848Z,1.40
2018-12-14T01:30:35.253Z,1.30
2018-12-14T01:33:06.403Z,1.30
2018-12-14T01:35:37.829Z,1.30
2018-12-14T01:38:08.427Z,1.30
2018-12-14T01:40:37.993Z,1.30
2018-12-14T01:43:06.513Z,1.30
2018-12-14T01:45:36.862Z,1.30
2018-12-14T01:48:08.516Z,1.30
2018-12-14T01:50:38.747Z,1.30
2018-12-14T01:53:07.231Z,1.30
2018-12-14T01:55:35.691Z,1.30
2018-12-14T01:58:08.454Z,1.30
2018-12-14T02:00:49.358Z,1.30
2018-12-14T02:03:25.270Z,1.20
2018-12-14T02:06:00.925Z,1.20
2018-12-14T02:08:30.084Z,1.20
2018-12-14T02:11:07.723Z,1.20
2018-12-14T02:13:36.163Z,1.20
2018-12-14T02:16:05.393Z,1.10
2018-12-14T02:18:33.895Z,1.10
2018-12-14T02:21:02.414Z,1.00
2018-12-14T02:23:30.864Z,1.00
2018-12-14T02:25:59.274Z,1.00
2018-12-14T02:28:27.881Z,1.00
2018-12-14T02:30:56.404Z,1.00
2018-12-14T02:33:24.844Z,1.00
2018-12-14T02:35:53.272Z,1.00
2018-12-14T02:38:22.725Z,0.90
2018-12-14T02:40:51.670Z,0.90
2018-12-14T02:43:22.013Z,0.90
2018-12-14T02:45:51.742Z,0.90
2018-12-14T02:48:20.142Z,0.90
2018-12-14T02:50:49.058Z,0.80
2018-12-14T02:53:17.595Z,0.90
2018-12-14T02:55:46.125Z,0.90
2018-12-14T02:58:14.694Z,0.90
2018-12-14T03:00:43.104Z,0.80
2018-12-14T03:03:11.522Z,0.80
2018-12-14T03:05:40.039Z,0.80
2018-12-14T03:08:08.483Z,0.80
2018-12-14T03:10:37.084Z,0.80
2018-12-14T03:13:05.744Z,0.80
2018-12-14T03:15:34.194Z,0.80
2018-12-14T03:18:02.757Z,0.80
2018-12-14T03:20:31.321Z,0.80
2018-12-14T03:22:59.870Z,0.80
2018-12-14T03:25:28.338Z,0.80
2018-12-14T03:27:57.264Z,0.80
2018-12-14T03:30:25.859Z,0.80
2018-12-14T03:32:54.530Z,0.80
2018-12-14T03:35:23.263Z,0.70
2018-12-14T03:37:51.824Z,0.70
2018-12-14T03:40:20.343Z,0.70
2018-12-14T03:42:49.299Z,0.70
2018-12-14T03:45:17.708Z,0.70
2018-12-14T03:47:46.101Z,0.70
2018-12-14T03:50:14.438Z,0.70
2018-12-14T03:52:42.038Z,0.70
2018-12-14T03:55:10.309Z,0.70
2018-12-14T03:57:38.880Z,0.70
2018-12-14T04:00:09.800Z,0.70
2018-12-14T04:02:38.395Z,0.70
2018-12-14T04:05:07.233Z,0.70
2018-12-14T04:07:35.573Z,0.70
2018-12-14T04:10:04.502Z,0.70
2018-12-14T04:12:33.130Z,0.70
2018-12-14T04:15:01.511Z,0.70
2018-12-14T04:17:29.975Z,0.70
2018-12-14T04:19:58.511Z,0.70
2018-12-14T04:22:26.968Z,0.70
2018-12-14T04:24:55.621Z,0.80
2018-12-14T04:27:24.278Z,0.80
2018-12-14T04:29:53.118Z,0.90
2018-12-14T04:32:21.669Z,0.90
2018-12-14T04:34:50.200Z,0.90
2018-12-14T04:37:19.008Z,0.90
2018-12-14T04:39:46.700Z,1.00
2018-12-14T04:42:15.672Z,0.90
2018-12-14T04:44:44.497Z,1.00
2018-12-14T04:47:13.469Z,1.10
2018-12-14T04:49:42.638Z,1.10
2018-12-14T04:52:11.048Z,1.10
2018-12-14T04:54:39.585Z,1.10
2018-12-14T04:57:08.316Z,1.10
2018-12-14T04:59:36.831Z,1.20
2018-12-14T05:02:05.485Z,1.20
2018-12-14T05:04:33.982Z,1.20
2018-12-14T05:07:02.370Z,1.20
2018-12-14T05:09:31.113Z,1.20
2018-12-14T05:12:00.215Z,1.30
2018-12-14T05:14:28.679Z,1.30
2018-12-14T05:16:57.227Z,1.40
2018-12-14T05:19:25.890Z,1.30
2018-12-14T05:21:54.676Z,1.30
2018-12-14T05:24:23.213Z,1.40
2018-12-14T05:26:51.756Z,1.40
2018-12-14T05:29:20.272Z,1.40
2018-12-14T05:31:48.810Z,1.50
2018-12-14T05:34:17.728Z,1.50
2018-12-14T05:36:46.243Z,1.50
2018-12-14T05:39:15.122Z,1.50
2018-12-14T05:41:43.711Z,1.60
2018-12-14T05:44:12.371Z,1.60
2018-12-14T05:46:40.777Z,1.60
2018-12-14T05:49:09.295Z,1.60
2018-12-14T05:51:38.446Z,1.60
2018-12-14T05:54:07.178Z,1.60
2018-12-14T05:56:35.798Z,1.60
2018-12-14T06:01:57.495Z,1.70
2018-12-14T06:04:26.333Z,1.70
2018-12-14T06:09:24.216Z,1.60
2018-12-14T06:11:52.627Z,1.60
2018-12-14T06:14:20.927Z,1.60
2018-12-14T06:16:50.045Z,1.50
2018-12-14T06:19:19.342Z,1.50
2018-12-14T06:24:16.395Z,1.50
2018-12-14T06:26:45.245Z,1.60
2018-12-14T06:29:12.891Z,1.60
2018-12-14T06:31:41.983Z,1.60
2018-12-14T06:34:11.072Z,1.50
2018-12-14T06:36:39.646Z,1.50
2018-12-14T06:39:08.390Z,1.50
2018-12-14T06:41:37.045Z,1.50
2018-12-14T06:44:05.477Z,1.50
2018-12-14T06:46:34.044Z,1.50
2018-12-14T06:49:02.456Z,1.50
2018-12-14T06:51:31.205Z,1.50
2018-12-14T06:53:59.650Z,1.50
2018-12-14T06:56:28.404Z,1.50
2018-12-14T06:58:57.430Z,1.50
2018-12-14T07:01:25.878Z,1.60
2018-12-14T07:03:54.370Z,1.60
2018-12-14T07:06:22.957Z,1.60
2018-12-14T07:08:51.582Z,1.60
2018-12-14T07:11:20.012Z,1.60
2018-12-14T07:13:48.483Z,1.60
2018-12-14T07:16:19.151Z,1.70
2018-12-14T07:18:48.039Z,1.70
2018-12-14T07:21:16.325Z,1.70
2018-12-14T07:23:44.936Z,1.70
2018-12-14T07:26:13.393Z,1.80
2018-12-14T07:28:42.029Z,1.80
2018-12-14T07:33:37.573Z,1.80
2018-12-14T07:36:06.036Z,1.90
2018-12-14T07:38:34.423Z,1.90
2018-12-14T07:41:02.895Z,1.90
2018-12-14T07:43:31.434Z,1.90
2018-12-14T07:45:59.817Z,1.90
2018-12-14T07:48:33.681Z,1.90
2018-12-14T07:51:02.316Z,1.90
2018-12-14T07:53:31.767Z,2.00
2018-12-14T07:56:00.994Z,2.00
2018-12-14T08:03:21.665Z,2.10
2018-12-14T08:05:52.270Z,2.00
2018-12-14T08:08:21.750Z,2.10
2018-12-14T08:10:50.645Z,2.10
2018-12-14T08:13:19.697Z,2.20
2018-12-14T08:15:48.151Z,2.10
2018-12-14T08:18:16.783Z,2.20
2018-12-14T08:20:45.230Z,2.20
2018-12-14T08:26:28.643Z,2.30
2018-12-14T08:31:27.923Z,2.30
2018-12-14T08:34:03.777Z,2.30
2018-12-14T08:36:39.584Z,2.30
2018-12-14T08:39:08.260Z,2.40
2018-12-14T08:44:25.384Z,2.50
2018-12-14T08:46:53.995Z,2.50
2018-12-14T08:51:56.157Z,2.50
2018-12-14T08:54:24.537Z,2.50
2018-12-14T08:56:53.471Z,2.60
2018-12-14T09:01:48.485Z,2.60
2018-12-14T09:04:16.823Z,2.50
2018-12-14T09:06:45.233Z,2.50
2018-12-14T09:09:13.715Z,2.50
2018-12-14T09:11:42.485Z,2.60
2018-12-14T09:14:10.882Z,2.50
2018-12-14T09:16:39.691Z,2.50
2018-12-14T09:19:08.114Z,2.50
2018-12-14T09:21:36.774Z,2.60
2018-12-14T09:24:05.468Z,2.60
2018-12-14T09:26:33.877Z,2.50
2018-12-14T09:29:03.409Z,2.50
2018-12-14T09:31:32.173Z,2.60
2018-12-14T09:34:00.557Z,2.60
2018-12-14T09:36:28.938Z,2.60
2018-12-14T09:38:57.827Z,2.50
2018-12-14T09:41:26.369Z,2.60
2018-12-14T09:43:54.873Z,2.50
2018-12-14T09:48:51.064Z,2.50
2018-12-14T09:51:19.585Z,2.50
2018-12-14T09:53:48.019Z,2.60
2018-12-14T09:56:16.792Z,2.60
2018-12-14T09:58:45.457Z,2.70
2018-12-14T10:01:14.500Z,2.70
2018-12-14T10:03:44.394Z,2.70
2018-12-14T10:06:15.689Z,2.70
2018-12-14T10:08:43.702Z,2.70
2018-12-14T10:11:12.399Z,2.70
2018-12-14T10:13:40.986Z,2.70
2018-12-14T10:16:09.619Z,2.70
2018-12-14T10:18:43.917Z,2.70
2018-12-14T10:21:12.533Z,2.70
2018-12-14T10:23:41.097Z,2.70
2018-12-14T10:26:11.341Z,2.80
2018-12-14T10:28:39.815Z,2.70
2018-12-14T10:31:08.355Z,2.70
2018-12-14T10:33:36.905Z,2.70
2018-12-14T10:36:06.306Z,2.70
2018-12-14T10:38:34.728Z,2.70
2018-12-14T10:41:02.487Z,2.60
2018-12-14T10:43:30.987Z,2.70
2018-12-14T10:45:59.532Z,2.60
2018-12-14T10:48:28.191Z,2.60
2018-12-14T10:50:57.191Z,2.60
2018-12-14T10:53:26.434Z,2.60
2018-12-14T10:55:55.139Z,2.60
2018-12-14T10:58:23.477Z,2.60
2018-12-14T11:00:57.376Z,2.50
2018-12-14T11:03:25.999Z,2.60
2018-12-14T11:05:54.377Z,2.60
2018-12-14T11:08:22.140Z,2.60
2018-12-14T11:10:50.882Z,2.50
2018-12-14T11:13:19.837Z,2.50
2018-12-14T11:15:48.437Z,2.60
2018-12-14T11:18:16.891Z,2.60
2018-12-14T11:20:45.268Z,2.60
2018-12-14T11:23:13.701Z,2.60
2018-12-14T11:25:42.175Z,2.60
2018-12-14T11:28:10.538Z,2.60
2018-12-14T11:30:38.901Z,2.60
2018-12-14T11:33:08.135Z,2.60
2018-12-14T11:35:36.573Z,2.70
2018-12-14T11:38:05.015Z,2.60
2018-12-14T11:40:33.566Z,2.70
2018-12-14T11:43:01.948Z,2.70
2018-12-14T11:45:30.221Z,2.70
2018-12-14T11:47:58.885Z,2.70
2018-12-14T11:50:27.301Z,2.70
2018-12-14T11:52:56.838Z,2.70
2018-12-14T11:55:25.866Z,2.70
2018-12-14T11:57:54.251Z,2.70
2018-12-14T12:00:22.898Z,2.80
2018-12-14T12:02:51.493Z,2.80
2018-12-14T12:07:48.361Z,2.80
2018-12-14T12:10:15.994Z,2.80
2018-12-14T12:12:44.474Z,2.90
2018-12-14T12:15:12.835Z,2.90
2018-12-14T12:17:41.312Z,3.00
2018-12-14T12:20:10.002Z,3.00
2018-12-14T12:22:37.791Z,3.00
2018-12-14T12:25:06.357Z,3.10
2018-12-14T12:27:34.975Z,3.10
2018-12-14T12:30:04.125Z,3.10
2018-12-14T12:32:33.720Z,3.10
2018-12-14T12:35:02.154Z,3.10
2018-12-14T12:37:31.098Z,3.20
2018-12-14T12:39:59.837Z,3.20
2018-12-14T12:42:27.455Z,3.20
2018-12-14T12:44:55.973Z,3.20
2018-12-14T12:47:24.441Z,3.20
2018-12-14T12:49:52.908Z,3.20
2018-12-14T12:52:21.279Z,3.20
2018-12-14T12:54:49.701Z,3.20
2018-12-14T12:57:18.349Z,3.20
2018-12-14T12:59:48.636Z,3.10
2018-12-14T13:02:19.940Z,3.20
2018-12-14T13:04:48.545Z,3.20
2018-12-14T13:07:17.061Z,3.10
2018-12-14T13:09:45.416Z,3.10
2018-12-14T13:12:13.930Z,3.10
2018-12-14T13:14:42.346Z,3.10
2018-12-14T13:17:10.917Z,3.10
2018-12-14T13:19:39.407Z,3.10
2018-12-14T13:22:07.730Z,3.10
2018-12-14T13:24:36.296Z,3.00
2018-12-14T13:27:04.778Z,3.10
2018-12-14T13:29:33.131Z,3.10
2018-12-14T13:32:01.220Z,3.10
2018-12-14T13:34:29.051Z,3.10
2018-12-14T13:36:57.329Z,3.10
2018-12-14T13:39:26.175Z,3.10
2018-12-14T13:41:54.692Z,3.10
2018-12-14T13:44:23.416Z,3.10
2018-12-14T13:46:52.603Z,3.10
2018-12-14T13:49:23.794Z,3.10
2018-12-14T13:51:52.170Z,3.10
2018-12-14T13:54:20.589Z,3.10
2018-12-14T13:56:48.884Z,3.10
2018-12-14T13:59:17.721Z,3.10
2018-12-14T14:01:46.363Z,3.10
2018-12-14T14:04:14.813Z,3.10
2018-12-14T14:06:43.263Z,3.10
2018-12-14T14:09:12.161Z,3.00
2018-12-14T14:11:40.679Z,3.00
2018-12-14T14:14:09.250Z,3.10
2018-12-14T14:16:37.657Z,3.10
2018-12-14T14:19:05.987Z,3.00
2018-12-14T14:21:34.319Z,3.00
2018-12-14T14:24:02.669Z,3.00
2018-12-14T14:26:31.321Z,3.00
2018-12-14T14:28:59.787Z,3.00
2018-12-14T14:31:28.286Z,3.00
2018-12-14T14:33:56.776Z,3.00
2018-12-14T14:36:25.262Z,2.90
2018-12-14T14:38:54.393Z,3.00
2018-12-14T14:41:23.065Z,2.90
2018-12-14T14:43:52.134Z,2.90
2018-12-14T14:46:20.626Z,2.90
2018-12-14T14:48:48.967Z,2.90
2018-12-14T14:51:17.538Z,2.90
2018-12-14T14:53:45.882Z,2.80
2018-12-14T14:56:14.230Z,2.80
2018-12-14T14:58:42.851Z,2.80
2018-12-14T15:01:11.935Z,2.80
2018-12-14T15:03:40.578Z,2.80
2018-12-14T15:06:08.995Z,2.80
2018-12-14T15:08:37.586Z,2.80
2018-12-14T15:11:06.159Z,2.80
2018-12-14T15:13:34.674Z,2.80
2018-12-14T15:16:03.134Z,2.70
2018-12-14T15:18:34.575Z,2.70
2018-12-14T15:23:29.672Z,2.70
2018-12-14T15:25:58.630Z,2.70
2018-12-14T15:28:28.758Z,2.80
2018-12-14T15:30:57.420Z,2.80
2018-12-14T15:33:25.847Z,2.70
2018-12-14T15:35:54.310Z,2.80
2018-12-14T15:38:23.163Z,2.80
2018-12-14T15:40:51.855Z,2.80
2018-12-14T15:43:21.024Z,2.80
2018-12-14T15:45:49.580Z,2.80
2018-12-14T15:48:23.423Z,2.80
2018-12-14T15:50:52.168Z,2.90
2018-12-14T15:53:21.217Z,2.90
2018-12-14T15:55:49.781Z,2.90
2018-12-14T15:58:18.295Z,2.90
2018-12-14T16:00:47.082Z,2.90
2018-12-14T16:03:15.756Z,2.90
2018-12-14T16:05:44.758Z,3.00
2018-12-14T16:08:13.205Z,3.00
2018-12-14T16:10:41.620Z,3.00
2018-12-14T16:15:38.008Z,3.10
2018-12-14T16:18:06.605Z,3.00
2018-12-14T16:20:35.218Z,3.10
2018-12-14T16:23:03.872Z,3.10
2018-12-14T16:25:32.433Z,3.10
2018-12-14T16:28:02.384Z,3.10
2018-12-14T16:30:30.886Z,3.10
2018-12-14T16:32:59.456Z,3.10
2018-12-14T16:35:27.813Z,3.10
2018-12-14T16:37:56.534Z,3.20
2018-12-14T16:40:25.099Z,3.20
2018-12-14T16:42:53.658Z,3.20
2018-12-14T16:45:26.476Z,3.20
2018-12-14T16:47:52.922Z,3.20
2018-12-14T16:50:22.493Z,3.20
2018-12-14T16:52:51.052Z,3.20
2018-12-14T16:55:19.645Z,3.10
2018-12-14T16:57:48.123Z,3.20
2018-12-14T17:00:16.787Z,3.10
2018-12-14T17:02:45.411Z,3.20
2018-12-14T17:05:13.725Z,3.20
2018-12-14T17:07:42.397Z,3.20
2018-12-14T17:10:11.630Z,3.20
2018-12-14T17:12:39.993Z,3.20
2018-12-14T17:15:09.044Z,3.20
2018-12-14T17:17:37.586Z,3.20
2018-12-14T17:20:06.106Z,3.20
2018-12-14T17:22:34.616Z,3.20
2018-12-14T17:25:04.262Z,3.20
2018-12-14T17:27:32.726Z,3.20
2018-12-14T17:30:01.240Z,3.10
2018-12-14T17:32:30.047Z,3.20
2018-12-14T17:34:58.738Z,3.20
2018-12-14T17:37:27.297Z,3.20
2018-12-14T17:39:55.869Z,3.20
2018-12-14T17:42:24.286Z,3.20
2018-12-14T17:44:52.698Z,3.20
2018-12-14T17:47:21.226Z,3.30
2018-12-14T17:49:49.786Z,3.20
2018-12-14T17:52:17.854Z,3.30
2018-12-14T17:54:46.401Z,3.30
2018-12-14T17:57:15.076Z,3.30
2018-12-14T17:59:43.543Z,3.30
2018-12-14T18:02:12.596Z,3.30
2018-12-14T18:04:41.198Z,3.40
2018-12-14T18:07:09.557Z,3.30
2018-12-14T18:09:37.939Z,3.30
2018-12-14T18:12:06.550Z,3.30
2018-12-14T18:14:33.970Z,3.30
2018-12-14T18:17:02.667Z,3.30
2018-12-14T18:19:31.042Z,3.30
2018-12-14T18:21:59.389Z,3.20
2018-12-14T18:24:27.831Z,3.20
2018-12-14T18:26:56.311Z,3.20
2018-12-14T18:29:24.751Z,3.20
2018-12-14T18:31:53.026Z,3.20
2018-12-14T18:34:21.548Z,3.10
2018-12-14T18:36:49.932Z,3.20
2018-12-14T18:39:19.184Z,3.10
2018-12-14T18:41:47.069Z,3.00
2018-12-14T18:44:15.361Z,3.00
2018-12-14T18:46:44.111Z,3.00
2018-12-14T18:49:14.390Z,2.90
2018-12-14T18:51:43.073Z,2.90
2018-12-14T18:54:11.471Z,2.90
2018-12-14T18:56:40.106Z,2.90
2018-12-14T18:59:08.639Z,2.80
2018-12-14T19:01:36.537Z,2.80
2018-12-14T19:04:04.586Z,2.80
2018-12-14T19:06:33.191Z,2.80
2018-12-14T19:09:01.759Z,2.70
2018-12-14T19:11:30.231Z,2.70
2018-12-14T19:13:58.787Z,2.60
2018-12-14T19:16:27.125Z,2.60
2018-12-14T19:18:55.700Z,2.60
2018-12-14T19:21:24.272Z,2.60
2018-12-14T19:23:52.736Z,2.60
2018-12-14T19:26:21.243Z,2.70
2018-12-14T19:28:49.686Z,2.60
2018-12-14T19:31:18.371Z,2.60
2018-12-14T19:33:47.084Z,2.60
2018-12-14T19:36:15.590Z,2.60
2018-12-14T19:38:44.033Z,2.60
2018-12-14T19:41:12.353Z,2.60
2018-12-14T19:43:41.128Z,2.70
2018-12-14T19:46:09.874Z,2.60
2018-12-14T19:48:38.293Z,2.70
2018-12-14T19:51:06.850Z,2.60
2018-12-14T19:53:35.195Z,2.60
2018-12-14T19:56:03.679Z,2.60
2018-12-14T19:58:32.118Z,2.60
2018-12-14T20:01:00.565Z,2.60
2018-12-14T20:03:29.226Z,2.60
2018-12-14T20:05:57.813Z,2.60
2018-12-14T20:08:26.597Z,2.60
2018-12-14T20:10:55.322Z,2.60
2018-12-14T20:13:23.690Z,2.60
2018-12-14T20:15:57.587Z,2.60
2018-12-14T20:18:22.989Z,2.60
2018-12-14T20:20:51.649Z,2.60
2018-12-14T20:23:20.374Z,2.60
2018-12-14T20:25:48.827Z,2.60
2018-12-14T20:28:17.219Z,2.60
2018-12-14T20:30:45.909Z,2.60
2018-12-14T20:33:14.451Z,2.60
2018-12-14T20:35:43.060Z,2.60
2018-12-14T20:38:11.723Z,2.60
2018-12-14T20:40:41.260Z,2.70
2018-12-14T20:43:11.371Z,2.70
2018-12-14T20:45:39.761Z,2.60
2018-12-14T20:48:08.196Z,2.70
2018-12-14T20:50:36.829Z,2.70
2018-12-14T20:53:05.335Z,2.80
2018-12-14T20:55:33.723Z,2.70
2018-12-14T20:58:02.237Z,2.70
2018-12-14T21:00:30.818Z,2.80
2018-12-14T21:02:59.834Z,2.70
2018-12-14T21:05:28.186Z,2.80
2018-12-14T21:07:56.612Z,2.80
2018-12-14T21:10:25.332Z,2.80
2018-12-14T21:12:53.913Z,2.80
2018-12-14T21:15:22.864Z,2.80
2018-12-14T21:17:51.326Z,2.80
2018-12-14T21:20:20.309Z,2.80
2018-12-14T21:22:50.704Z,2.80
2018-12-14T21:25:19.357Z,2.80
2018-12-14T21:27:48.011Z,2.80
2018-12-14T21:30:16.541Z,2.80
2018-12-14T21:32:45.030Z,2.80
2018-12-14T21:35:14.403Z,2.80
2018-12-14T21:37:42.922Z,2.80
2018-12-14T21:40:11.367Z,2.70
2018-12-14T21:42:39.909Z,2.70
2018-12-14T21:45:08.907Z,2.70
2018-12-14T21:47:37.696Z,2.70
2018-12-14T21:50:06.474Z,2.70
2018-12-14T21:52:34.937Z,2.60
2018-12-14T21:55:04.232Z,2.60
2018-12-14T21:57:33.017Z,2.60
2018-12-14T22:00:01.334Z,2.70
2018-12-14T22:02:29.766Z,2.70
2018-12-14T22:04:58.340Z,2.70
2018-12-14T22:07:26.798Z,2.70
2018-12-14T22:09:55.154Z,2.80
2018-12-14T22:12:23.594Z,2.70
2018-12-14T22:14:52.629Z,2.80
2018-12-14T22:17:21.233Z,2.70
2018-12-14T22:19:53.450Z,2.70
2018-12-14T22:22:25.568Z,2.70
2018-12-14T22:24:55.862Z,2.70
2018-12-14T22:27:24.182Z,2.80
2018-12-14T22:29:52.740Z,2.80
2018-12-14T22:32:21.158Z,2.80
2018-12-14T22:34:49.825Z,2.80
2018-12-14T22:37:18.362Z,2.80
2018-12-14T22:39:47.165Z,2.80
2018-12-14T22:42:15.463Z,2.90
2018-12-14T22:44:43.753Z,2.90
2018-12-14T22:47:12.545Z,2.90
2018-12-14T22:49:41.110Z,2.90
2018-12-14T22:52:09.475Z,2.90
2018-12-14T22:54:37.923Z,2.90
2018-12-14T22:57:06.263Z,2.90
2018-12-14T22:59:34.587Z,2.90
2018-12-14T23:02:03.042Z,2.90
2018-12-14T23:04:31.742Z,2.90
2018-12-14T23:07:00.530Z,2.90
2018-12-14T23:09:29.148Z,2.90
2018-12-14T23:11:58.006Z,2.90
2018-12-14T23:14:26.307Z,2.90
2018-12-14T23:16:54.894Z,2.80
2018-12-14T23:19:23.520Z,2.80
2018-12-14T23:21:52.002Z,2.80
2018-12-14T23:24:20.541Z,2.80
2018-12-14T23:26:49.256Z,2.80
2018-12-14T23:29:18.368Z,2.80
2018-12-14T23:31:46.864Z,2.90
2018-12-14T23:34:15.172Z,2.90
2018-12-14T23:36:43.629Z,2.80
2018-12-14T23:39:11.930Z,2.90
2018-12-14T23:41:40.549Z,2.80
2018-12-14T23:44:08.887Z,2.80
2018-12-14T23:46:37.319Z,2.80
2018-12-14T23:49:05.716Z,2.80
2018-12-14T23:51:34.278Z,2.90
2018-12-14T23:54:02.598Z,2.90
2018-12-14T23:56:31.117Z,2.90
2018-12-14T23:58:59.578Z,2.80
